Butte City, CA (95920)

5:05 AM PST on February 13, 2016 (GMT -0800)
Behring Ranch | | Change Station
CLOSE
Current Station
Personal Weather Station
Location: Colusa, CA
Elevation: 52 ft
Nearby Weather Stations

Elev 52 ft 39.34 °N, 121.93 °W | Updated 30 seconds ago

Clear
Clear
44.7 °F
Feels Like 45 °F
N
2.0
Wind Variable Wind from NW

Today
High -- | Low -- °F
--% Chance of Precip.
Yesterday
High -- | Low -- °F
Precip. -- in
Pressure 30.25 in
Visibility 10.0 miles
Clouds Clear
Windchill 45 °F
Dew Point 42 °F
Humidity 91%
Rainfall 0.00 in
Snow Depth Not available.
7:02 AM 5:41 PM
Waxing Crescent, 30% visible
METAR KOVE 131253Z AUTO 34003KT 10SM CLR 09/07 A3024 RMK AO2 SLP242 T00890072
Pressure 30.25 in
Visibility 10.0 miles
Clouds Clear
Windchill 45 °F
Dew Point 42 °F
Humidity 91%
Rainfall 0.00 in
Snow Depth Not available.
7:02 AM 5:41 PM
Waxing Crescent, 30% visible
METAR KOVE 131253Z AUTO 34003KT 10SM CLR 09/07 A3024 RMK AO2 SLP242 T00890072

10-Day Weather Forecast

Almanac

Astronomy

Feb. 13, 2016 Rise Set
Actual Time
Civil Twilight
Nautical Twilight
Astronomical Twilight
Moon
Length of Visible Light
Length of Day
Tomorrow will be .
, % of the Moon is Illuminated

Today's Extremes

State Highs State Lows

Community

WunderPhotos

Upload Photos

1,892,545 photos uploaded!

WunderBlog® & News

Nearby

Air Quality

  Air Quality AQ Index Pollutant
Not available.

Snow Depth

Station Depth Elevation

Earthquake Activity

City Distance Mag. Time & Date
Minimum magnitude displayed is 2.5.

Coastal Water Temperatures

Place Temperature

Stations

Nearby Weather Stations

Station Location Temp. Windchill Dew Point Humidity Wind Precip. Elev Updated Type
                   

Watches & Warnings

There are currently no watches in effect.